Jeffris, Wisconsin
Current Conditions -  °F | °C
As of 12:55 PM on Sunday 23 Nov 2014 (Local Time) from KRRL Reporting Station
Drizzle Drizzle  
Wind Chill: 45°   Ceiling: 100
Heat Index: 45°   Visibility: 0.5mi
Dew Point: 45°   Wind: 3mph
Humidity: 100%   Direction: 180°S
Pressure: 29.46"   Gusts: NA
Location:  45.3595°N, 89.45°W
Report Text: KRRL 231855Z AUTO 18003KT 1/2SM DZ OVC001 07/07 A2946 RMK AO2 T00720072
Loading
Personal Weather Stations






























Interactive Weather Map New forecast layout! Learn more

10-Day Weather Forecast

Advertisements
Track Severe Weather on mobile